Decoded Metar for KVOK (VOLK/CAMP DOUGLA in WI, USA) (IATA:VOK) | Meteo·Mobile Aviation Weather
aviador You're here:

KVOK Decoded Metar

VOLK/CAMP DOUGLA in WI, USA
Report Time2019-02-22 23:56:00
UTC Time2019-02-23 00:54:34
Flight Rules vfr VFR
WindCalm
Visibility9999 m
Phenomena:N/A
Clouds:Broken 100 Hf
Expected CloudBase > 1,600 ft AGL from Temp-Dew spread
Ceiling10,000 ft
Temp-5°C (ISA -18)
Dew Point-9°C (74% RH)
AAT-8.0°C
QNH1026 hPa
Density Alt-1,732 ft
Elevation909 ft
Report Wrong Elevation
Raw Report
KVOK 222356Z AUTO 00000KT 10SM BKN100 M05/M09 A3031 RMK AO2 SLP286
T10481091 10015 21049 57016=

Extra information for KVOK:More info

Metar Taf Metar & Taf Last 4 Metars F.Rules Stats Wind Profile Meteogram Temp Stats Airport Information Weather charts Add Link Nearby VenuesMetar ALERT Operation Metar Decoded Social comments

AIRNAV info for KVOK